Rochester, MN (55903)

9:35 AM CST on February 06, 2016 (GMT -0600)
Mayowood Road | | Change Station
CLOSE
Current Station
Personal Weather Station
Location: Rochester, MN
Elevation: 1027 ft
Nearby Weather Stations
Active Advisory: Special Statement

Elev 1027 ft 43.99 °N, 92.50 °W | Updated 43 seconds ago

Overcast
Overcast
25.5 °F
Feels Like 20 °F
N
4.9
Wind Variable Wind from SW
Gusts 10.0 mph

Today
High -- | Low -- °F
--% Chance of Precip.
Yesterday
High -- | Low -- °F
Precip. -- in
Pressure 30.14 in
Visibility 10.0 miles
Clouds Overcast 800 ft
Windchill 20 °F
Dew Point 20 °F
Humidity 79%
Rainfall 0.00 in
Snow Depth Not available.
7:22 AM 5:26 PM
Waning Crescent, 5% visible
METAR K9MN 061513Z AUTO 19004KT 10SM OVC008 M03/M04 A3014 RMK AO1 T10301042
Pressure 30.14 in
Visibility 10.0 miles
Clouds Overcast 800 ft
Windchill 20 °F
Dew Point 20 °F
Humidity 79%
Rainfall 0.00 in
Snow Depth Not available.
7:22 AM 5:26 PM
Waning Crescent, 5% visible
METAR K9MN 061513Z AUTO 19004KT 10SM OVC008 M03/M04 A3014 RMK AO1 T10301042

10-Day Weather Forecast

Almanac

Astronomy

Feb. 06, 2016 Rise Set
Actual Time
Civil Twilight
Nautical Twilight
Astronomical Twilight
Moon
Length of Visible Light
Length of Day
Tomorrow will be .
, % of the Moon is Illuminated

Today's Extremes

State Highs State Lows

Community

WunderPhotos

Upload Photos

1,890,987 photos uploaded!

WunderBlog® & News

Nearby

Air Quality

  Air Quality AQ Index Pollutant
Not available.

Snow Depth

Station Depth Elevation

Earthquake Activity

City Distance Mag. Time & Date
Minimum magnitude displayed is 2.5.

Coastal Water Temperatures

Place Temperature

Stations

Nearby Weather Stations

Station Location Temp. Windchill Dew Point Humidity Wind Precip. Elev Updated Type
                   

Watches & Warnings

Special Statement
Issued: 9:08 AM CST Feb. 6, 2016 – National Weather Service

... Areas of dense fog developing through late morning...

Areas of dense fog will expand into parts of southeast Minnesota
and northeast Iowa through late morning... mainly along and west of
Highway 63. In these areas... visibility may drop below one-half
mile at times as fog thickens. Improvement is expected through
the afternoon hours. If traveling this morning... be aware that
weather conditions may change quickly along your Route.


Lawrence


908 am CST Sat Feb 6 2016

... Areas of dense fog developing through late morning...

Areas of dense fog will expand into parts of southeast Minnesota
and northeast Iowa through late morning... mainly along and west of
Highway 63. In these areas... visibility may drop below one-half
mile at times as fog thickens. Improvement is expected through
the afternoon hours. If traveling this morning... be aware that
weather conditions may change quickly along your Route.


Lawrence